sensor_id;sensor_type;location;lat;lon;timestamp;P1;durP1;ratioP1;P2;durP2;ratioP2
3939;SDS011;1984;48.312;9.244;2023-01-16T00:01:09;1.20;;;1.20;;
3939;SDS011;1984;48.312;9.244;2023-01-16T00:03:35;4.10;;;1.20;;
3939;SDS011;1984;48.312;9.244;2023-01-16T00:06:01;1.37;;;1.20;;
3939;SDS011;1984;48.312;9.244;2023-01-16T00:08:26;1.33;;;1.10;;
3939;SDS011;1984;48.312;9.244;2023-01-16T00:10:52;1.87;;;1.10;;
3939;SDS011;1984;48.312;9.244;2023-01-16T00:13:17;1.80;;;1.17;;
3939;SDS011;1984;48.312;9.244;2023-01-16T00:15:43;3.23;;;1.07;;
3939;SDS011;1984;48.312;9.244;2023-01-16T00:18:10;2.50;;;1.10;;
3939;SDS011;1984;48.312;9.244;2023-01-16T00:20:36;1.17;;;0.83;;
3939;SDS011;1984;48.312;9.244;2023-01-16T00:23:01;0.87;;;0.87;;
3939;SDS011;1984;48.312;9.244;2023-01-16T00:25:27;2.13;;;1.03;;
3939;SDS011;1984;48.312;9.244;2023-01-16T00:27:52;0.70;;;0.70;;
3939;SDS011;1984;48.312;9.244;2023-01-16T00:30:18;1.47;;;1.03;;
3939;SDS011;1984;48.312;9.244;2023-01-16T00:32:44;1.17;;;0.80;;
3939;SDS011;1984;48.312;9.244;2023-01-16T00:35:10;2.90;;;0.87;;
3939;SDS011;1984;48.312;9.244;2023-01-16T00:37:35;0.90;;;0.90;;
3939;SDS011;1984;48.312;9.244;2023-01-16T00:40:01;1.07;;;0.60;;
3939;SDS011;1984;48.312;9.244;2023-01-16T00:42:26;1.03;;;1.03;;
3939;SDS011;1984;48.312;9.244;2023-01-16T00:44:52;0.70;;;0.60;;
3939;SDS011;1984;48.312;9.244;2023-01-16T00:47:17;0.60;;;0.60;;
3939;SDS011;1984;48.312;9.244;2023-01-16T00:49:43;5.63;;;0.73;;
3939;SDS011;1984;48.312;9.244;2023-01-16T00:52:08;0.80;;;0.80;;
3939;SDS011;1984;48.312;9.244;2023-01-16T00:54:34;1.57;;;1.47;;
3939;SDS011;1984;48.312;9.244;2023-01-16T00:56:59;1.00;;;0.90;;
3939;SDS011;1984;48.312;9.244;2023-01-16T00:59:25;0.70;;;0.70;;
3939;SDS011;1984;48.312;9.244;2023-01-16T01:01:50;0.80;;;0.80;;
3939;SDS011;1984;48.312;9.244;2023-01-16T01:04:16;1.77;;;0.83;;
3939;SDS011;1984;48.312;9.244;2023-01-16T01:06:41;1.13;;;0.77;;
3939;SDS011;1984;48.312;9.244;2023-01-16T01:09:07;0.60;;;0.60;;
3939;SDS011;1984;48.312;9.244;2023-01-16T01:11:33;1.07;;;0.70;;
3939;SDS011;1984;48.312;9.244;2023-01-16T01:13:58;0.60;;;0.60;;
3939;SDS011;1984;48.312;9.244;2023-01-16T01:16:24;3.23;;;1.10;;
3939;SDS011;1984;48.312;9.244;2023-01-16T01:18:49;1.43;;;0.70;;
3939;SDS011;1984;48.312;9.244;2023-01-16T01:21:15;1.10;;;0.60;;
3939;SDS011;1984;48.312;9.244;2023-01-16T01:23:41;1.07;;;0.80;;
3939;SDS011;1984;48.312;9.244;2023-01-16T01:26:07;3.37;;;0.67;;
3939;SDS011;1984;48.312;9.244;2023-01-16T01:28:34;0.60;;;0.60;;
3939;SDS011;1984;48.312;9.244;2023-01-16T01:31:03;3.33;;;1.00;;
3939;SDS011;1984;48.312;9.244;2023-01-16T01:33:30;2.73;;;1.00;;
3939;SDS011;1984;48.312;9.244;2023-01-16T01:35:55;1.33;;;0.83;;
3939;SDS011;1984;48.312;9.244;2023-01-16T01:38:21;0.80;;;0.73;;
3939;SDS011;1984;48.312;9.244;2023-01-16T01:40:46;0.73;;;0.67;;
3939;SDS011;1984;48.312;9.244;2023-01-16T01:43:13;3.20;;;1.13;;
3939;SDS011;1984;48.312;9.244;2023-01-16T01:45:39;0.70;;;0.70;;
3939;SDS011;1984;48.312;9.244;2023-01-16T01:53:12;1.27;;;0.60;;
3939;SDS011;1984;48.312;9.244;2023-01-16T01:55:44;1.33;;;0.60;;
3939;SDS011;1984;48.312;9.244;2023-01-16T01:58:12;0.80;;;0.60;;
3939;SDS011;1984;48.312;9.244;2023-01-16T02:00:45;1.10;;;0.77;;
3939;SDS011;1984;48.312;9.244;2023-01-16T02:03:14;0.57;;;0.57;;
3939;SDS011;1984;48.312;9.244;2023-01-16T02:05:48;1.17;;;0.70;;
3939;SDS011;1984;48.312;9.244;2023-01-16T02:08:15;1.07;;;0.70;;
3939;SDS011;1984;48.312;9.244;2023-01-16T02:10:55;0.73;;;0.60;;
3939;SDS011;1984;48.312;9.244;2023-01-16T02:13:26;0.97;;;0.60;;
3939;SDS011;1984;48.312;9.244;2023-01-16T02:15:51;2.80;;;0.70;;
3939;SDS011;1984;48.312;9.244;2023-01-16T02:18:36;1.40;;;0.93;;
3939;SDS011;1984;48.312;9.244;2023-01-16T02:29:48;3.10;;;0.60;;
3939;SDS011;1984;48.312;9.244;2023-01-16T02:41:15;0.50;;;0.50;;
3939;SDS011;1984;48.312;9.244;2023-01-16T02:43:51;0.50;;;0.50;;
3939;SDS011;1984;48.312;9.244;2023-01-16T02:46:30;4.40;;;1.13;;
3939;SDS011;1984;48.312;9.244;2023-01-16T02:49:19;1.70;;;0.50;;
3939;SDS011;1984;48.312;9.244;2023-01-16T02:51:56;1.90;;;0.60;;
3939;SDS011;1984;48.312;9.244;2023-01-16T02:54:45;1.57;;;0.60;;
3939;SDS011;1984;48.312;9.244;2023-01-16T02:57:34;0.50;;;0.50;;
3939;SDS011;1984;48.312;9.244;2023-01-16T03:00:07;0.70;;;0.70;;
3939;SDS011;1984;48.312;9.244;2023-01-16T03:02:34;6.60;;;0.90;;
3939;SDS011;1984;48.312;9.244;2023-01-16T03:05:00;4.13;;;0.97;;
3939;SDS011;1984;48.312;9.244;2023-01-16T03:07:35;3.17;;;0.70;;
3939;SDS011;1984;48.312;9.244;2023-01-16T03:18:41;2.40;;;0.80;;
3939;SDS011;1984;48.312;9.244;2023-01-16T03:23:55;1.53;;;0.90;;
3939;SDS011;1984;48.312;9.244;2023-01-16T03:26:40;3.90;;;0.90;;
3939;SDS011;1984;48.312;9.244;2023-01-16T03:31:58;3.70;;;0.70;;
3939;SDS011;1984;48.312;9.244;2023-01-16T03:37:02;0.70;;;0.70;;
3939;SDS011;1984;48.312;9.244;2023-01-16T03:39:37;0.80;;;0.80;;
3939;SDS011;1984;48.312;9.244;2023-01-16T03:42:21;1.03;;;0.80;;
3939;SDS011;1984;48.312;9.244;2023-01-16T03:44:54;1.00;;;0.90;;
3939;SDS011;1984;48.312;9.244;2023-01-16T03:47:25;1.73;;;0.80;;
3939;SDS011;1984;48.312;9.244;2023-01-16T03:49:58;1.10;;;1.00;;
3939;SDS011;1984;48.312;9.244;2023-01-16T03:52:30;0.60;;;0.60;;
3939;SDS011;1984;48.312;9.244;2023-01-16T03:57:57;7.17;;;0.80;;
3939;SDS011;1984;48.312;9.244;2023-01-16T04:00:28;1.67;;;1.57;;
3939;SDS011;1984;48.312;9.244;2023-01-16T04:03:06;3.20;;;0.77;;
3939;SDS011;1984;48.312;9.244;2023-01-16T04:05:49;8.00;;;1.10;;
3939;SDS011;1984;48.312;9.244;2023-01-16T04:08:25;0.80;;;0.80;;
3939;SDS011;1984;48.312;9.244;2023-01-16T04:10:56;0.83;;;0.60;;
3939;SDS011;1984;48.312;9.244;2023-01-16T04:13:25;0.80;;;0.80;;
3939;SDS011;1984;48.312;9.244;2023-01-16T04:16:00;1.73;;;0.63;;
3939;SDS011;1984;48.312;9.244;2023-01-16T04:18:30;1.90;;;0.90;;
3939;SDS011;1984;48.312;9.244;2023-01-16T04:20:58;1.50;;;1.17;;
3939;SDS011;1984;48.312;9.244;2023-01-16T04:23:24;1.00;;;0.83;;
3939;SDS011;1984;48.312;9.244;2023-01-16T04:25:50;3.27;;;1.10;;
3939;SDS011;1984;48.312;9.244;2023-01-16T04:28:15;0.80;;;0.80;;
3939;SDS011;1984;48.312;9.244;2023-01-16T04:30:41;1.33;;;1.10;;
3939;SDS011;1984;48.312;9.244;2023-01-16T04:33:07;4.33;;;1.40;;
3939;SDS011;1984;48.312;9.244;2023-01-16T04:35:33;1.47;;;1.37;;
3939;SDS011;1984;48.312;9.244;2023-01-16T04:37:59;2.20;;;1.20;;
3939;SDS011;1984;48.312;9.244;2023-01-16T04:40:25;2.50;;;1.07;;
3939;SDS011;1984;48.312;9.244;2023-01-16T04:42:51;5.03;;;1.50;;
3939;SDS011;1984;48.312;9.244;2023-01-16T04:45:16;2.83;;;0.90;;
3939;SDS011;1984;48.312;9.244;2023-01-16T04:47:46;0.80;;;0.80;;
3939;SDS011;1984;48.312;9.244;2023-01-16T04:50:12;6.57;;;1.60;;
3939;SDS011;1984;48.312;9.244;2023-01-16T04:52:38;2.97;;;1.20;;
3939;SDS011;1984;48.312;9.244;2023-01-16T04:55:04;1.53;;;1.43;;
3939;SDS011;1984;48.312;9.244;2023-01-16T04:57:30;7.07;;;1.53;;
3939;SDS011;1984;48.312;9.244;2023-01-16T04:59:55;1.60;;;1.50;;
3939;SDS011;1984;48.312;9.244;2023-01-16T05:02:21;1.63;;;1.33;;
3939;SDS011;1984;48.312;9.244;2023-01-16T05:04:46;1.20;;;1.10;;
3939;SDS011;1984;48.312;9.244;2023-01-16T05:07:12;6.93;;;1.20;;
3939;SDS011;1984;48.312;9.244;2023-01-16T05:09:37;4.30;;;1.27;;
3939;SDS011;1984;48.312;9.244;2023-01-16T05:12:03;1.10;;;1.00;;
3939;SDS011;1984;48.312;9.244;2023-01-16T05:14:29;3.80;;;2.30;;
3939;SDS011;1984;48.312;9.244;2023-01-16T05:16:54;1.17;;;1.17;;
3939;SDS011;1984;48.312;9.244;2023-01-16T05:19:20;1.23;;;1.07;;
3939;SDS011;1984;48.312;9.244;2023-01-16T05:21:45;2.07;;;1.10;;
3939;SDS011;1984;48.312;9.244;2023-01-16T05:24:11;0.87;;;0.83;;
3939;SDS011;1984;48.312;9.244;2023-01-16T05:26:36;1.40;;;1.30;;
3939;SDS011;1984;48.312;9.244;2023-01-16T05:29:02;1.23;;;1.13;;
3939;SDS011;1984;48.312;9.244;2023-01-16T05:31:27;2.50;;;1.20;;
3939;SDS011;1984;48.312;9.244;2023-01-16T05:33:53;2.47;;;1.60;;
3939;SDS011;1984;48.312;9.244;2023-01-16T05:36:18;2.17;;;1.43;;
3939;SDS011;1984;48.312;9.244;2023-01-16T05:38:44;1.60;;;1.40;;
3939;SDS011;1984;48.312;9.244;2023-01-16T05:41:11;1.20;;;1.10;;
3939;SDS011;1984;48.312;9.244;2023-01-16T05:43:36;1.53;;;1.10;;
3939;SDS011;1984;48.312;9.244;2023-01-16T05:46:02;5.17;;;1.57;;
3939;SDS011;1984;48.312;9.244;2023-01-16T05:48:28;5.77;;;2.17;;
3939;SDS011;1984;48.312;9.244;2023-01-16T05:50:56;6.07;;;2.00;;
3939;SDS011;1984;48.312;9.244;2023-01-16T05:53:21;4.40;;;2.17;;
3939;SDS011;1984;48.312;9.244;2023-01-16T05:55:47;3.40;;;1.17;;
3939;SDS011;1984;48.312;9.244;2023-01-16T05:58:13;1.73;;;1.63;;
3939;SDS011;1984;48.312;9.244;2023-01-16T06:00:40;8.23;;;2.47;;
3939;SDS011;1984;48.312;9.244;2023-01-16T06:03:07;16.37;;;3.37;;
3939;SDS011;1984;48.312;9.244;2023-01-16T06:05:33;6.07;;;3.70;;
3939;SDS011;1984;48.312;9.244;2023-01-16T06:07:59;6.33;;;1.97;;
3939;SDS011;1984;48.312;9.244;2023-01-16T06:10:25;4.97;;;2.70;;
3939;SDS011;1984;48.312;9.244;2023-01-16T06:12:51;8.33;;;1.80;;
3939;SDS011;1984;48.312;9.244;2023-01-16T06:15:17;1.23;;;0.70;;
3939;SDS011;1984;48.312;9.244;2023-01-16T06:17:43;2.20;;;0.90;;
3939;SDS011;1984;48.312;9.244;2023-01-16T06:20:09;1.07;;;0.97;;
3939;SDS011;1984;48.312;9.244;2023-01-16T06:22:35;4.93;;;1.20;;
3939;SDS011;1984;48.312;9.244;2023-01-16T06:25:01;2.03;;;1.37;;
3939;SDS011;1984;48.312;9.244;2023-01-16T06:27:27;5.00;;;1.70;;
3939;SDS011;1984;48.312;9.244;2023-01-16T06:29:52;2.27;;;1.80;;
3939;SDS011;1984;48.312;9.244;2023-01-16T06:32:18;1.20;;;1.10;;
3939;SDS011;1984;48.312;9.244;2023-01-16T06:34:43;2.30;;;1.63;;
3939;SDS011;1984;48.312;9.244;2023-01-16T06:37:09;15.27;;;3.40;;
3939;SDS011;1984;48.312;9.244;2023-01-16T06:39:35;6.93;;;4.30;;
3939;SDS011;1984;48.312;9.244;2023-01-16T06:42:01;11.67;;;2.80;;
3939;SDS011;1984;48.312;9.244;2023-01-16T06:44:29;4.27;;;1.73;;
3939;SDS011;1984;48.312;9.244;2023-01-16T06:46:58;1.87;;;1.40;;
3939;SDS011;1984;48.312;9.244;2023-01-16T06:49:25;3.40;;;1.37;;
3939;SDS011;1984;48.312;9.244;2023-01-16T06:51:50;0.53;;;0.53;;
3939;SDS011;1984;48.312;9.244;2023-01-16T06:54:16;0.70;;;0.70;;
3939;SDS011;1984;48.312;9.244;2023-01-16T06:56:41;3.93;;;1.33;;
3939;SDS011;1984;48.312;9.244;2023-01-16T06:59:07;1.27;;;0.60;;
3939;SDS011;1984;48.312;9.244;2023-01-16T07:01:32;1.73;;;0.70;;
3939;SDS011;1984;48.312;9.244;2023-01-16T07:03:58;0.70;;;0.70;;
3939;SDS011;1984;48.312;9.244;2023-01-16T07:06:23;0.43;;;0.43;;
3939;SDS011;1984;48.312;9.244;2023-01-16T07:08:49;3.70;;;1.77;;
3939;SDS011;1984;48.312;9.244;2023-01-16T07:11:15;0.60;;;0.60;;
3939;SDS011;1984;48.312;9.244;2023-01-16T07:13:42;1.17;;;0.70;;
3939;SDS011;1984;48.312;9.244;2023-01-16T07:16:09;3.33;;;0.70;;
3939;SDS011;1984;48.312;9.244;2023-01-16T07:18:55;0.50;;;0.50;;
3939;SDS011;1984;48.312;9.244;2023-01-16T07:21:39;2.10;;;0.70;;
3939;SDS011;1984;48.312;9.244;2023-01-16T07:24:28;0.80;;;0.70;;
3939;SDS011;1984;48.312;9.244;2023-01-16T07:26:57;4.00;;;0.97;;
3939;SDS011;1984;48.312;9.244;2023-01-16T07:29:29;0.93;;;0.90;;
3939;SDS011;1984;48.312;9.244;2023-01-16T07:31:58;1.37;;;1.00;;
3939;SDS011;1984;48.312;9.244;2023-01-16T07:34:25;5.83;;;2.07;;
3939;SDS011;1984;48.312;9.244;2023-01-16T07:36:50;3.27;;;2.00;;
3939;SDS011;1984;48.312;9.244;2023-01-16T07:39:16;4.60;;;2.13;;
3939;SDS011;1984;48.312;9.244;2023-01-16T07:41:41;3.17;;;1.70;;
3939;SDS011;1984;48.312;9.244;2023-01-16T07:44:07;1.47;;;1.40;;
3939;SDS011;1984;48.312;9.244;2023-01-16T07:46:32;1.90;;;1.60;;
3939;SDS011;1984;48.312;9.244;2023-01-16T07:48:58;3.20;;;2.43;;
3939;SDS011;1984;48.312;9.244;2023-01-16T07:51:24;5.10;;;2.40;;
3939;SDS011;1984;48.312;9.244;2023-01-16T07:53:49;2.53;;;1.40;;
3939;SDS011;1984;48.312;9.244;2023-01-16T07:56:15;4.37;;;1.33;;
3939;SDS011;1984;48.312;9.244;2023-01-16T07:58:41;1.50;;;1.40;;
3939;SDS011;1984;48.312;9.244;2023-01-16T08:01:08;1.30;;;1.20;;
3939;SDS011;1984;48.312;9.244;2023-01-16T08:03:34;1.17;;;1.07;;
3939;SDS011;1984;48.312;9.244;2023-01-16T08:06:00;1.43;;;1.33;;
3939;SDS011;1984;48.312;9.244;2023-01-16T08:08:27;3.70;;;0.90;;
3939;SDS011;1984;48.312;9.244;2023-01-16T08:10:54;0.83;;;0.80;;
3939;SDS011;1984;48.312;9.244;2023-01-16T08:13:20;1.10;;;0.70;;
3939;SDS011;1984;48.312;9.244;2023-01-16T08:15:45;1.70;;;1.23;;
3939;SDS011;1984;48.312;9.244;2023-01-16T08:18:11;1.20;;;0.93;;
3939;SDS011;1984;48.312;9.244;2023-01-16T08:20:38;1.03;;;1.03;;
3939;SDS011;1984;48.312;9.244;2023-01-16T08:23:04;3.57;;;1.50;;
3939;SDS011;1984;48.312;9.244;2023-01-16T08:25:29;0.63;;;0.63;;
3939;SDS011;1984;48.312;9.244;2023-01-16T08:27:55;0.50;;;0.50;;
3939;SDS011;1984;48.312;9.244;2023-01-16T08:30:21;0.50;;;0.50;;
3939;SDS011;1984;48.312;9.244;2023-01-16T08:32:46;1.23;;;0.60;;
3939;SDS011;1984;48.312;9.244;2023-01-16T08:35:12;0.90;;;0.90;;
3939;SDS011;1984;48.312;9.244;2023-01-16T08:37:37;3.80;;;1.03;;
3939;SDS011;1984;48.312;9.244;2023-01-16T08:40:03;1.03;;;0.90;;
3939;SDS011;1984;48.312;9.244;2023-01-16T08:42:30;0.60;;;0.60;;
3939;SDS011;1984;48.312;9.244;2023-01-16T08:45:14;1.10;;;1.00;;
3939;SDS011;1984;48.312;9.244;2023-01-16T08:47:59;2.17;;;1.23;;
3939;SDS011;1984;48.312;9.244;2023-01-16T08:50:46;1.73;;;0.80;;
3939;SDS011;1984;48.312;9.244;2023-01-16T08:53:31;0.77;;;0.60;;
3939;SDS011;1984;48.312;9.244;2023-01-16T08:55:57;2.53;;;0.97;;
3939;SDS011;1984;48.312;9.244;2023-01-16T08:58:22;2.83;;;1.03;;
3939;SDS011;1984;48.312;9.244;2023-01-16T09:00:48;1.00;;;0.90;;
3939;SDS011;1984;48.312;9.244;2023-01-16T09:03:14;2.17;;;0.80;;
3939;SDS011;1984;48.312;9.244;2023-01-16T09:05:43;4.63;;;0.70;;
3939;SDS011;1984;48.312;9.244;2023-01-16T09:08:09;2.70;;;0.83;;
3939;SDS011;1984;48.312;9.244;2023-01-16T09:10:35;0.87;;;0.87;;
3939;SDS011;1984;48.312;9.244;2023-01-16T09:13:00;2.30;;;2.10;;
3939;SDS011;1984;48.312;9.244;2023-01-16T09:15:44;0.83;;;0.70;;
3939;SDS011;1984;48.312;9.244;2023-01-16T09:18:10;0.47;;;0.47;;
3939;SDS011;1984;48.312;9.244;2023-01-16T09:20:35;0.70;;;0.70;;
3939;SDS011;1984;48.312;9.244;2023-01-16T09:23:01;2.47;;;0.50;;
3939;SDS011;1984;48.312;9.244;2023-01-16T09:25:29;0.80;;;0.80;;
3939;SDS011;1984;48.312;9.244;2023-01-16T09:27:55;0.40;;;0.40;;
3939;SDS011;1984;48.312;9.244;2023-01-16T09:30:21;1.63;;;1.53;;
3939;SDS011;1984;48.312;9.244;2023-01-16T09:32:46;2.40;;;2.20;;
3939;SDS011;1984;48.312;9.244;2023-01-16T09:35:12;0.47;;;0.47;;
3939;SDS011;1984;48.312;9.244;2023-01-16T09:37:38;1.70;;;0.60;;
3939;SDS011;1984;48.312;9.244;2023-01-16T09:40:06;1.20;;;1.10;;
3939;SDS011;1984;48.312;9.244;2023-01-16T09:45:40;0.70;;;0.70;;
3939;SDS011;1984;48.312;9.244;2023-01-16T09:48:13;1.23;;;1.13;;
3939;SDS011;1984;48.312;9.244;2023-01-16T09:50:51;1.33;;;1.20;;
3939;SDS011;1984;48.312;9.244;2023-01-16T09:56:48;0.80;;;0.80;;
3939;SDS011;1984;48.312;9.244;2023-01-16T10:02:08;0.77;;;0.77;;
3939;SDS011;1984;48.312;9.244;2023-01-16T10:04:50;1.20;;;1.10;;
3939;SDS011;1984;48.312;9.244;2023-01-16T10:21:08;3.67;;;2.20;;
3939;SDS011;1984;48.312;9.244;2023-01-16T10:34:29;4.50;;;1.40;;
3939;SDS011;1984;48.312;9.244;2023-01-16T10:37:04;1.13;;;1.00;;
3939;SDS011;1984;48.312;9.244;2023-01-16T10:39:32;3.90;;;0.90;;
3939;SDS011;1984;48.312;9.244;2023-01-16T10:44:54;0.90;;;0.90;;
3939;SDS011;1984;48.312;9.244;2023-01-16T10:47:53;1.10;;;1.00;;
3939;SDS011;1984;48.312;9.244;2023-01-16T10:50:37;2.30;;;1.40;;
3939;SDS011;1984;48.312;9.244;2023-01-16T10:53:07;1.43;;;0.90;;
3939;SDS011;1984;48.312;9.244;2023-01-16T10:55:35;1.10;;;0.80;;
3939;SDS011;1984;48.312;9.244;2023-01-16T10:58:13;6.57;;;0.70;;
3939;SDS011;1984;48.312;9.244;2023-01-16T11:00:49;1.43;;;0.73;;
3939;SDS011;1984;48.312;9.244;2023-01-16T11:03:21;1.67;;;0.90;;
3939;SDS011;1984;48.312;9.244;2023-01-16T11:06:05;1.10;;;0.87;;
3939;SDS011;1984;48.312;9.244;2023-01-16T11:08:35;1.47;;;1.37;;
3939;SDS011;1984;48.312;9.244;2023-01-16T11:11:01;3.80;;;1.10;;
3939;SDS011;1984;48.312;9.244;2023-01-16T11:13:27;9.70;;;2.77;;
3939;SDS011;1984;48.312;9.244;2023-01-16T11:16:21;2.20;;;1.83;;
3939;SDS011;1984;48.312;9.244;2023-01-16T11:19:20;2.33;;;1.47;;
3939;SDS011;1984;48.312;9.244;2023-01-16T11:21:52;1.10;;;1.10;;
3939;SDS011;1984;48.312;9.244;2023-01-16T11:24:35;1.27;;;1.13;;
3939;SDS011;1984;48.312;9.244;2023-01-16T11:27:05;2.70;;;0.70;;
3939;SDS011;1984;48.312;9.244;2023-01-16T11:29:36;1.57;;;1.40;;
3939;SDS011;1984;48.312;9.244;2023-01-16T11:32:05;2.73;;;1.37;;
3939;SDS011;1984;48.312;9.244;2023-01-16T11:34:33;2.60;;;1.70;;
3939;SDS011;1984;48.312;9.244;2023-01-16T11:37:01;3.47;;;2.53;;
3939;SDS011;1984;48.312;9.244;2023-01-16T11:39:30;3.07;;;1.60;;
3939;SDS011;1984;48.312;9.244;2023-01-16T11:41:58;1.47;;;1.30;;
3939;SDS011;1984;48.312;9.244;2023-01-16T11:44:46;0.70;;;0.70;;
3939;SDS011;1984;48.312;9.244;2023-01-16T11:47:31;1.13;;;1.13;;
3939;SDS011;1984;48.312;9.244;2023-01-16T11:50:19;1.30;;;1.20;;
3939;SDS011;1984;48.312;9.244;2023-01-16T11:52:57;1.77;;;1.30;;
3939;SDS011;1984;48.312;9.244;2023-01-16T11:55:30;0.60;;;0.60;;
3939;SDS011;1984;48.312;9.244;2023-01-16T11:58:07;0.70;;;0.70;;
3939;SDS011;1984;48.312;9.244;2023-01-16T12:00:53;0.80;;;0.80;;
3939;SDS011;1984;48.312;9.244;2023-01-16T12:14:03;0.80;;;0.60;;
3939;SDS011;1984;48.312;9.244;2023-01-16T12:16:53;1.00;;;1.00;;
3939;SDS011;1984;48.312;9.244;2023-01-16T12:24:48;0.90;;;0.90;;
3939;SDS011;1984;48.312;9.244;2023-01-16T12:27:40;1.83;;;1.30;;
3939;SDS011;1984;48.312;9.244;2023-01-16T12:35:23;1.23;;;0.90;;
3939;SDS011;1984;48.312;9.244;2023-01-16T12:38:01;1.00;;;1.00;;
3939;SDS011;1984;48.312;9.244;2023-01-16T12:40:49;1.70;;;1.23;;
3939;SDS011;1984;48.312;9.244;2023-01-16T12:46:52;1.03;;;0.87;;
3939;SDS011;1984;48.312;9.244;2023-01-16T13:01:06;2.93;;;1.80;;
3939;SDS011;1984;48.312;9.244;2023-01-16T13:03:41;1.50;;;1.40;;
3939;SDS011;1984;48.312;9.244;2023-01-16T13:06:16;1.00;;;1.00;;
3939;SDS011;1984;48.312;9.244;2023-01-16T13:08:52;1.67;;;1.00;;
3939;SDS011;1984;48.312;9.244;2023-01-16T13:11:32;1.07;;;0.97;;
3939;SDS011;1984;48.312;9.244;2023-01-16T13:14:25;0.63;;;0.63;;
3939;SDS011;1984;48.312;9.244;2023-01-16T13:17:00;0.83;;;0.83;;
3939;SDS011;1984;48.312;9.244;2023-01-16T13:19:31;1.80;;;1.10;;
3939;SDS011;1984;48.312;9.244;2023-01-16T13:24:32;0.80;;;0.80;;
3939;SDS011;1984;48.312;9.244;2023-01-16T13:27:03;3.07;;;0.70;;
3939;SDS011;1984;48.312;9.244;2023-01-16T13:29:36;5.63;;;1.20;;
3939;SDS011;1984;48.312;9.244;2023-01-16T13:32:27;1.10;;;1.00;;
3939;SDS011;1984;48.312;9.244;2023-01-16T13:40:33;1.43;;;1.03;;
3939;SDS011;1984;48.312;9.244;2023-01-16T13:43:22;0.70;;;0.70;;
3939;SDS011;1984;48.312;9.244;2023-01-16T13:46:13;1.13;;;1.03;;
3939;SDS011;1984;48.312;9.244;2023-01-16T13:48:39;1.00;;;1.00;;
3939;SDS011;1984;48.312;9.244;2023-01-16T13:51:11;1.07;;;1.07;;
3939;SDS011;1984;48.312;9.244;2023-01-16T13:53:39;0.77;;;0.77;;
3939;SDS011;1984;48.312;9.244;2023-01-16T13:56:07;2.30;;;1.40;;
3939;SDS011;1984;48.312;9.244;2023-01-16T13:58:41;1.67;;;0.97;;
3939;SDS011;1984;48.312;9.244;2023-01-16T14:04:10;2.23;;;1.90;;
3939;SDS011;1984;48.312;9.244;2023-01-16T14:06:53;1.13;;;1.10;;
3939;SDS011;1984;48.312;9.244;2023-01-16T14:15:17;1.00;;;0.90;;
3939;SDS011;1984;48.312;9.244;2023-01-16T14:21:01;0.97;;;0.97;;
3939;SDS011;1984;48.312;9.244;2023-01-16T14:23:29;1.23;;;0.80;;
3939;SDS011;1984;48.312;9.244;2023-01-16T14:26:39;2.23;;;1.60;;
3939;SDS011;1984;48.312;9.244;2023-01-16T14:29:14;1.80;;;1.27;;
3939;SDS011;1984;48.312;9.244;2023-01-16T14:32:02;2.63;;;1.10;;
3939;SDS011;1984;48.312;9.244;2023-01-16T14:34:34;1.40;;;1.10;;
3939;SDS011;1984;48.312;9.244;2023-01-16T14:37:21;2.83;;;1.70;;
3939;SDS011;1984;48.312;9.244;2023-01-16T14:39:52;1.30;;;1.20;;
3939;SDS011;1984;48.312;9.244;2023-01-16T14:42:26;1.77;;;1.50;;
3939;SDS011;1984;48.312;9.244;2023-01-16T14:45:34;1.57;;;1.10;;
3939;SDS011;1984;48.312;9.244;2023-01-16T14:57:18;1.13;;;1.10;;
3939;SDS011;1984;48.312;9.244;2023-01-16T14:59:58;1.20;;;1.07;;
3939;SDS011;1984;48.312;9.244;2023-01-16T15:02:41;2.63;;;1.27;;
3939;SDS011;1984;48.312;9.244;2023-01-16T15:05:18;1.33;;;1.10;;
3939;SDS011;1984;48.312;9.244;2023-01-16T15:07:51;2.60;;;1.57;;
3939;SDS011;1984;48.312;9.244;2023-01-16T15:10:27;4.30;;;1.40;;
3939;SDS011;1984;48.312;9.244;2023-01-16T15:13:22;1.80;;;1.23;;
3939;SDS011;1984;48.312;9.244;2023-01-16T15:16:16;2.93;;;1.40;;
3939;SDS011;1984;48.312;9.244;2023-01-16T15:19:12;3.23;;;1.40;;
3939;SDS011;1984;48.312;9.244;2023-01-16T15:22:13;1.17;;;0.90;;
3939;SDS011;1984;48.312;9.244;2023-01-16T15:24:48;0.67;;;0.67;;
3939;SDS011;1984;48.312;9.244;2023-01-16T15:27:25;0.83;;;0.83;;
3939;SDS011;1984;48.312;9.244;2023-01-16T15:30:02;1.00;;;1.00;;
3939;SDS011;1984;48.312;9.244;2023-01-16T15:32:50;1.40;;;1.30;;
3939;SDS011;1984;48.312;9.244;2023-01-16T15:35:17;1.00;;;0.97;;
3939;SDS011;1984;48.312;9.244;2023-01-16T15:37:56;1.00;;;1.00;;
3939;SDS011;1984;48.312;9.244;2023-01-16T15:40:28;1.67;;;1.57;;
3939;SDS011;1984;48.312;9.244;2023-01-16T15:42:54;5.03;;;1.30;;
3939;SDS011;1984;48.312;9.244;2023-01-16T15:45:45;1.00;;;0.90;;
3939;SDS011;1984;48.312;9.244;2023-01-16T15:48:41;0.70;;;0.70;;
3939;SDS011;1984;48.312;9.244;2023-01-16T15:51:08;1.03;;;0.90;;
3939;SDS011;1984;48.312;9.244;2023-01-16T15:53:40;4.13;;;1.37;;
3939;SDS011;1984;48.312;9.244;2023-01-16T15:56:15;1.67;;;0.90;;
3939;SDS011;1984;48.312;9.244;2023-01-16T15:58:50;5.13;;;1.13;;
3939;SDS011;1984;48.312;9.244;2023-01-16T16:01:23;0.80;;;0.80;;
3939;SDS011;1984;48.312;9.244;2023-01-16T16:03:50;1.63;;;1.17;;
3939;SDS011;1984;48.312;9.244;2023-01-16T16:06:17;1.23;;;1.13;;
3939;SDS011;1984;48.312;9.244;2023-01-16T16:08:47;1.40;;;1.13;;
3939;SDS011;1984;48.312;9.244;2023-01-16T16:11:19;1.10;;;1.03;;
3939;SDS011;1984;48.312;9.244;2023-01-16T16:14:27;0.93;;;0.93;;
3939;SDS011;1984;48.312;9.244;2023-01-16T16:17:20;1.50;;;1.20;;
3939;SDS011;1984;48.312;9.244;2023-01-16T16:22:54;0.80;;;0.80;;
3939;SDS011;1984;48.312;9.244;2023-01-16T16:25:32;1.50;;;1.40;;
3939;SDS011;1984;48.312;9.244;2023-01-16T16:28:04;1.20;;;1.00;;
3939;SDS011;1984;48.312;9.244;2023-01-16T16:30:40;1.27;;;0.97;;
3939;SDS011;1984;48.312;9.244;2023-01-16T16:33:12;4.83;;;1.50;;
3939;SDS011;1984;48.312;9.244;2023-01-16T16:35:46;4.33;;;2.13;;
3939;SDS011;1984;48.312;9.244;2023-01-16T16:43:50;2.40;;;1.67;;
3939;SDS011;1984;48.312;9.244;2023-01-16T16:48:48;3.93;;;1.97;;
3939;SDS011;1984;48.312;9.244;2023-01-16T16:51:18;1.73;;;1.63;;
3939;SDS011;1984;48.312;9.244;2023-01-16T16:53:56;1.43;;;1.33;;
3939;SDS011;1984;48.312;9.244;2023-01-16T16:56:24;2.30;;;1.90;;
3939;SDS011;1984;48.312;9.244;2023-01-16T16:58:52;2.47;;;2.00;;
3939;SDS011;1984;48.312;9.244;2023-01-16T17:01:19;2.23;;;2.00;;
3939;SDS011;1984;48.312;9.244;2023-01-16T17:03:47;4.27;;;3.03;;
3939;SDS011;1984;48.312;9.244;2023-01-16T17:06:17;2.20;;;2.10;;
3939;SDS011;1984;48.312;9.244;2023-01-16T17:08:52;1.30;;;1.30;;
3939;SDS011;1984;48.312;9.244;2023-01-16T17:11:18;3.20;;;1.77;;
3939;SDS011;1984;48.312;9.244;2023-01-16T17:13:43;5.00;;;3.60;;
3939;SDS011;1984;48.312;9.244;2023-01-16T17:16:14;4.00;;;2.80;;
3939;SDS011;1984;48.312;9.244;2023-01-16T17:18:42;3.53;;;2.70;;
3939;SDS011;1984;48.312;9.244;2023-01-16T17:21:08;2.13;;;2.03;;
3939;SDS011;1984;48.312;9.244;2023-01-16T17:23:37;1.90;;;1.80;;
3939;SDS011;1984;48.312;9.244;2023-01-16T17:26:02;1.73;;;1.60;;
3939;SDS011;1984;48.312;9.244;2023-01-16T17:28:28;1.67;;;1.57;;
3939;SDS011;1984;48.312;9.244;2023-01-16T17:30:54;1.53;;;1.43;;
3939;SDS011;1984;48.312;9.244;2023-01-16T17:33:19;1.10;;;1.10;;
3939;SDS011;1984;48.312;9.244;2023-01-16T17:35:47;1.23;;;1.17;;
3939;SDS011;1984;48.312;9.244;2023-01-16T17:38:34;1.30;;;1.30;;
3939;SDS011;1984;48.312;9.244;2023-01-16T17:41:04;1.13;;;1.13;;
3939;SDS011;1984;48.312;9.244;2023-01-16T17:43:33;1.70;;;1.63;;
3939;SDS011;1984;48.312;9.244;2023-01-16T17:46:17;1.30;;;1.20;;
3939;SDS011;1984;48.312;9.244;2023-01-16T17:48:48;1.90;;;1.10;;
3939;SDS011;1984;48.312;9.244;2023-01-16T17:51:15;1.57;;;1.10;;
3939;SDS011;1984;48.312;9.244;2023-01-16T17:53:46;0.97;;;0.97;;
3939;SDS011;1984;48.312;9.244;2023-01-16T17:56:12;1.07;;;1.00;;
3939;SDS011;1984;48.312;9.244;2023-01-16T17:58:38;0.87;;;0.87;;
3939;SDS011;1984;48.312;9.244;2023-01-16T18:01:11;1.33;;;1.10;;
3939;SDS011;1984;48.312;9.244;2023-01-16T18:03:39;0.83;;;0.77;;
3939;SDS011;1984;48.312;9.244;2023-01-16T18:06:11;1.00;;;0.60;;
3939;SDS011;1984;48.312;9.244;2023-01-16T18:08:37;1.00;;;0.70;;
3939;SDS011;1984;48.312;9.244;2023-01-16T18:11:04;0.90;;;0.90;;
3939;SDS011;1984;48.312;9.244;2023-01-16T18:13:49;2.73;;;1.27;;
3939;SDS011;1984;48.312;9.244;2023-01-16T18:16:35;1.33;;;0.97;;